Řízení letového provozu České republiky  
Aktualizace dat:  11.12.2019 04:58:26 UTC English version
   METEO Zobrazení stránky:  11.12.2019 04:58:57 UTC  
vysvětlivky
METAR EDDB 110450Z 17008KT CAVOK 00/M03 Q1014 NOSIG=
METAR EDDC 110450Z 15007KT CAVOK 01/M04 Q1015 NOSIG=
METAR EDDE 110450Z 17009KT CAVOK 03/M04 Q1013 NOSIG=
METAR EDDF 110450Z 21003KT 180V250 CAVOK 02/M02 Q1016 NOSIG=
METAR EDDM 110450Z 08003KT CAVOK M05/M06 Q1017 NOSIG=
METAR COR EDDN 110450Z 12008KT CAVOK M01/M04 Q1017=
METAR EDDP 110450Z 19013KT CAVOK 03/M02 Q1014 NOSIG=
METAR EDDT 110450Z 18010KT CAVOK 02/M02 Q1014 NOSIG=
METAR EDQM NIL
METAR EPBY 110430Z 17008KT 6000 NSC M02/M03 Q1019=
METAR EPGD 110430Z VRB04KT 9999 SCT004 BKN006 M00/M01 Q1016=
METAR EPKK 110430Z VRB01KT 2500 MIFG BR NSC M05/M05 Q1022=
METAR EPKT 110430Z 09005KT 4400 BR NSC M07/M08 Q1021=
METAR EPLL 110430Z VRB02KT 3000 BR NSC M06/M06 Q1021=
METAR EPPO 110430Z 15007KT 8000 NSC M02/M03 Q1019=
METAR EPRZ 110430Z 30001KT 9999 OVC039 00/M02 Q1022=
METAR EPWA 110430Z 17003KT 5000 MIFG BR NSC M06/M06 Q1022 TEMPO 2500 BR=
METAR EPWR 110430Z 13008KT CAVOK M06/M07 Q1020=
METAR LHBP 110430Z VRB01KT CAVOK 00/M03 Q1021 NOSIG=
METAR LHSM 110415Z AUTO 34006KT 7000 NCD M02/M03 Q1023=
METAR LKBC 110430Z AUTO 08006KT CAVOK M05/M06 Q1019=
METAR LKCV 110400Z 13004KT CAVOK M04/M05 Q1021 NOSIG RMK BLU BLU=
METAR LKKB 110400Z 18004KT CAVOK M01/M03 Q1020 NOSIG RMK BLU BLU=
METAR LKKU NIL
METAR LKKV 110400Z VRB02KT CAVOK M04/M05 Q1017 RMK REG QNH 1014=
METAR LKLN 110500Z AUTO 00000KT 9000 NCD M06/M06 Q1018=
METAR LKMT 110430Z 23003KT 8000 NSC M08/M09 Q1022 NOSIG RMK REG QNH 1014=
METAR LKNA 110400Z VRB02KT CAVOK M04/M06 Q1020 NOSIG RMK BLU BLU=
METAR LKPD 110400Z 10003KT CAVOK M05/M07 Q1021 NOSIG RMK BLU BLU=
METAR LKPJ 110400Z AUTO 30003KT CAVOK ///// Q////=
METAR LKPR 110430Z 15008KT CAVOK M03/M05 Q1018 NOSIG RMK REG QNH 1014=
METAR LKTB 110430Z 04003KT CAVOK M05/M06 Q1022 NOSIG RMK REG QNH 1014=
METAR LKVO NIL
METAR LOWI 110450Z VRB01KT CAVOK M05/M07 Q1020 NOSIG=
METAR LOWL 110450Z 11003KT 0700 R08/0750N FZBCFG BKN002 M03/M03 Q1020 TEMPO 0400 FZFG BKN001=
METAR LOWS 110450Z 14009KT CAVOK M03/M06 Q1019 NOSIG=
METAR LOWW 110450Z 32002KT CAVOK M03/M04 Q1022 NOSIG=
METAR LZIB 110430Z VRB02KT CAVOK M03/M07 Q1022=
METAR LZKZ 110430Z 01011KT CAVOK 01/M03 Q1021=
METAR LZMC 110400Z 15002KT CAVOK M07/M08 Q1023=
METAR LZPP 110430Z AUTO VRB02KT 9999 NCD M04/M06 Q1022=
METAR LZSL 110430Z 12001KT CAVOK M06/M08 Q1021=
METAR LZTT 110430Z 28005KT 9999 BKN022 M06/M08 Q1019=
METAR LZZI 110430Z 12003KT CAVOK M05/M06 Q1022=